sensor_id;sensor_type;location;lat;lon;timestamp;P1;durP1;ratioP1;P2;durP2;ratioP2
8279;SDS011;8335;42.646;23.380;2022-07-29T00:00:49;9.20;;;7.82;;
8279;SDS011;8335;42.646;23.380;2022-07-29T00:03:16;9.45;;;7.78;;
8279;SDS011;8335;42.646;23.380;2022-07-29T00:05:44;8.98;;;7.78;;
8279;SDS011;8335;42.646;23.380;2022-07-29T00:08:10;9.18;;;7.88;;
8279;SDS011;8335;42.646;23.380;2022-07-29T00:10:37;11.43;;;8.45;;
8279;SDS011;8335;42.646;23.380;2022-07-29T00:13:04;9.75;;;8.48;;
8279;SDS011;8335;42.646;23.380;2022-07-29T00:15:31;9.73;;;8.50;;
8279;SDS011;8335;42.646;23.380;2022-07-29T00:17:58;10.32;;;8.48;;
8279;SDS011;8335;42.646;23.380;2022-07-29T00:20:25;10.00;;;8.65;;
8279;SDS011;8335;42.646;23.380;2022-07-29T00:22:53;14.55;;;8.70;;
8279;SDS011;8335;42.646;23.380;2022-07-29T00:25:19;10.43;;;8.25;;
8279;SDS011;8335;42.646;23.380;2022-07-29T00:27:46;9.55;;;8.55;;
8279;SDS011;8335;42.646;23.380;2022-07-29T00:30:13;10.05;;;8.68;;
8279;SDS011;8335;42.646;23.380;2022-07-29T00:32:40;14.90;;;9.10;;
8279;SDS011;8335;42.646;23.380;2022-07-29T00:35:07;10.05;;;8.98;;
8279;SDS011;8335;42.646;23.380;2022-07-29T00:37:53;11.85;;;8.70;;
8279;SDS011;8335;42.646;23.380;2022-07-29T00:40:20;9.55;;;8.65;;
8279;SDS011;8335;42.646;23.380;2022-07-29T00:42:47;11.07;;;9.05;;
8279;SDS011;8335;42.646;23.380;2022-07-29T00:45:15;9.48;;;8.57;;
8279;SDS011;8335;42.646;23.380;2022-07-29T00:47:42;12.55;;;9.07;;
8279;SDS011;8335;42.646;23.380;2022-07-29T00:50:10;13.07;;;8.35;;
8279;SDS011;8335;42.646;23.380;2022-07-29T00:52:38;11.15;;;9.52;;
8279;SDS011;8335;42.646;23.380;2022-07-29T00:55:09;10.18;;;8.88;;
8279;SDS011;8335;42.646;23.380;2022-07-29T00:57:37;11.20;;;8.57;;
8279;SDS011;8335;42.646;23.380;2022-07-29T01:00:05;12.98;;;9.02;;
8279;SDS011;8335;42.646;23.380;2022-07-29T01:02:34;14.52;;;9.27;;
8279;SDS011;8335;42.646;23.380;2022-07-29T01:05:01;9.88;;;8.38;;
8279;SDS011;8335;42.646;23.380;2022-07-29T01:07:29;12.10;;;9.10;;
8279;SDS011;8335;42.646;23.380;2022-07-29T01:09:58;10.27;;;9.18;;
8279;SDS011;8335;42.646;23.380;2022-07-29T01:12:27;14.32;;;8.70;;
8279;SDS011;8335;42.646;23.380;2022-07-29T01:14:57;10.82;;;8.75;;
8279;SDS011;8335;42.646;23.380;2022-07-29T01:17:26;11.82;;;8.35;;
8279;SDS011;8335;42.646;23.380;2022-07-29T01:19:56;11.02;;;9.32;;
8279;SDS011;8335;42.646;23.380;2022-07-29T01:22:43;11.88;;;8.77;;
8279;SDS011;8335;42.646;23.380;2022-07-29T01:25:31;10.10;;;9.10;;
8279;SDS011;8335;42.646;23.380;2022-07-29T01:28:17;9.95;;;8.95;;
8279;SDS011;8335;42.646;23.380;2022-07-29T01:31:04;12.13;;;9.02;;
8279;SDS011;8335;42.646;23.380;2022-07-29T01:33:35;12.15;;;9.18;;
8279;SDS011;8335;42.646;23.380;2022-07-29T01:36:23;12.85;;;8.85;;
8279;SDS011;8335;42.646;23.380;2022-07-29T01:38:58;10.90;;;8.65;;
8279;SDS011;8335;42.646;23.380;2022-07-29T01:41:31;11.32;;;8.95;;
8279;SDS011;8335;42.646;23.380;2022-07-29T01:44:04;9.95;;;8.95;;
8279;SDS011;8335;42.646;23.380;2022-07-29T01:46:41;9.55;;;8.63;;
8279;SDS011;8335;42.646;23.380;2022-07-29T01:49:16;12.75;;;8.95;;
8279;SDS011;8335;42.646;23.380;2022-07-29T01:51:47;10.77;;;9.13;;
8279;SDS011;8335;42.646;23.380;2022-07-29T01:54:18;10.50;;;9.40;;
8279;SDS011;8335;42.646;23.380;2022-07-29T01:56:48;12.00;;;9.15;;
8279;SDS011;8335;42.646;23.380;2022-07-29T01:59:18;10.88;;;8.57;;
8279;SDS011;8335;42.646;23.380;2022-07-29T02:01:48;11.13;;;8.93;;
8279;SDS011;8335;42.646;23.380;2022-07-29T02:04:18;11.00;;;8.70;;
8279;SDS011;8335;42.646;23.380;2022-07-29T02:06:46;11.20;;;8.30;;
8279;SDS011;8335;42.646;23.380;2022-07-29T02:09:15;10.38;;;8.35;;
8279;SDS011;8335;42.646;23.380;2022-07-29T02:11:45;9.70;;;8.25;;
8279;SDS011;8335;42.646;23.380;2022-07-29T02:14:16;8.48;;;7.55;;
8279;SDS011;8335;42.646;23.380;2022-07-29T02:16:48;10.80;;;8.10;;
8279;SDS011;8335;42.646;23.380;2022-07-29T02:19:18;8.60;;;7.72;;
8279;SDS011;8335;42.646;23.380;2022-07-29T02:21:47;9.70;;;8.23;;
8279;SDS011;8335;42.646;23.380;2022-07-29T02:24:15;10.70;;;8.90;;
8279;SDS011;8335;42.646;23.380;2022-07-29T02:26:44;9.25;;;8.32;;
8279;SDS011;8335;42.646;23.380;2022-07-29T02:29:12;12.52;;;8.45;;
8279;SDS011;8335;42.646;23.380;2022-07-29T02:31:42;9.88;;;7.85;;
8279;SDS011;8335;42.646;23.380;2022-07-29T02:34:12;12.18;;;8.48;;
8279;SDS011;8335;42.646;23.380;2022-07-29T02:36:40;14.55;;;7.78;;
8279;SDS011;8335;42.646;23.380;2022-07-29T02:39:10;9.00;;;7.55;;
8279;SDS011;8335;42.646;23.380;2022-07-29T02:41:40;10.70;;;8.00;;
8279;SDS011;8335;42.646;23.380;2022-07-29T02:44:10;8.18;;;7.15;;
8279;SDS011;8335;42.646;23.380;2022-07-29T02:46:41;9.10;;;7.80;;
8279;SDS011;8335;42.646;23.380;2022-07-29T02:49:15;8.40;;;7.53;;
8279;SDS011;8335;42.646;23.380;2022-07-29T02:51:45;10.75;;;7.82;;
8279;SDS011;8335;42.646;23.380;2022-07-29T02:54:19;11.48;;;8.20;;
8279;SDS011;8335;42.646;23.380;2022-07-29T02:56:50;9.02;;;7.93;;
8279;SDS011;8335;42.646;23.380;2022-07-29T02:59:22;8.35;;;7.53;;
8279;SDS011;8335;42.646;23.380;2022-07-29T03:01:53;10.35;;;7.93;;
8279;SDS011;8335;42.646;23.380;2022-07-29T03:04:22;10.27;;;8.27;;
8279;SDS011;8335;42.646;23.380;2022-07-29T03:06:53;9.98;;;7.82;;
8279;SDS011;8335;42.646;23.380;2022-07-29T03:09:24;9.73;;;8.63;;
8279;SDS011;8335;42.646;23.380;2022-07-29T03:11:52;14.40;;;10.02;;
8279;SDS011;8335;42.646;23.380;2022-07-29T03:14:20;13.30;;;8.82;;
8279;SDS011;8335;42.646;23.380;2022-07-29T03:16:48;11.32;;;9.43;;
8279;SDS011;8335;42.646;23.380;2022-07-29T03:19:17;10.95;;;9.65;;
8279;SDS011;8335;42.646;23.380;2022-07-29T03:21:45;14.13;;;9.90;;
8279;SDS011;8335;42.646;23.380;2022-07-29T03:24:23;13.32;;;11.18;;
8279;SDS011;8335;42.646;23.380;2022-07-29T03:26:51;15.18;;;11.13;;
8279;SDS011;8335;42.646;23.380;2022-07-29T03:29:18;14.65;;;11.57;;
8279;SDS011;8335;42.646;23.380;2022-07-29T03:31:45;13.23;;;10.77;;
8279;SDS011;8335;42.646;23.380;2022-07-29T03:34:11;14.82;;;11.40;;
8279;SDS011;8335;42.646;23.380;2022-07-29T03:36:39;23.35;;;11.82;;
8279;SDS011;8335;42.646;23.380;2022-07-29T03:39:06;16.48;;;11.93;;
8279;SDS011;8335;42.646;23.380;2022-07-29T03:41:36;13.90;;;11.63;;
8279;SDS011;8335;42.646;23.380;2022-07-29T03:44:06;15.15;;;11.68;;
8279;SDS011;8335;42.646;23.380;2022-07-29T03:46:35;19.27;;;12.77;;
8279;SDS011;8335;42.646;23.380;2022-07-29T03:49:05;19.30;;;12.60;;
8279;SDS011;8335;42.646;23.380;2022-07-29T03:51:33;18.35;;;12.43;;
8279;SDS011;8335;42.646;23.380;2022-07-29T03:54:02;17.25;;;12.35;;
8279;SDS011;8335;42.646;23.380;2022-07-29T03:56:29;18.67;;;12.13;;
8279;SDS011;8335;42.646;23.380;2022-07-29T03:59:01;13.95;;;12.18;;
8279;SDS011;8335;42.646;23.380;2022-07-29T04:01:29;13.90;;;9.13;;
8279;SDS011;8335;42.646;23.380;2022-07-29T04:03:58;8.27;;;7.43;;
8279;SDS011;8335;42.646;23.380;2022-07-29T04:06:26;11.38;;;8.02;;
8279;SDS011;8335;42.646;23.380;2022-07-29T04:08:53;9.48;;;7.65;;
8279;SDS011;8335;42.646;23.380;2022-07-29T04:11:21;10.13;;;7.60;;
8279;SDS011;8335;42.646;23.380;2022-07-29T04:13:47;9.25;;;7.55;;
8279;SDS011;8335;42.646;23.380;2022-07-29T04:16:14;9.48;;;8.13;;
8279;SDS011;8335;42.646;23.380;2022-07-29T04:18:41;8.40;;;7.50;;
8279;SDS011;8335;42.646;23.380;2022-07-29T04:21:07;9.90;;;6.97;;
8279;SDS011;8335;42.646;23.380;2022-07-29T04:23:34;9.15;;;6.95;;
8279;SDS011;8335;42.646;23.380;2022-07-29T04:26:01;7.55;;;6.63;;
8279;SDS011;8335;42.646;23.380;2022-07-29T04:28:29;7.35;;;6.63;;
8279;SDS011;8335;42.646;23.380;2022-07-29T04:30:56;9.60;;;7.40;;
8279;SDS011;8335;42.646;23.380;2022-07-29T04:33:22;7.85;;;6.35;;
8279;SDS011;8335;42.646;23.380;2022-07-29T04:35:49;11.38;;;6.82;;
8279;SDS011;8335;42.646;23.380;2022-07-29T04:38:16;6.55;;;5.47;;
8279;SDS011;8335;42.646;23.380;2022-07-29T04:40:42;9.50;;;6.20;;
8279;SDS011;8335;42.646;23.380;2022-07-29T04:43:10;8.32;;;6.05;;
8279;SDS011;8335;42.646;23.380;2022-07-29T04:45:38;6.65;;;5.88;;
8279;SDS011;8335;42.646;23.380;2022-07-29T04:48:04;7.80;;;6.00;;
8279;SDS011;8335;42.646;23.380;2022-07-29T04:50:31;5.88;;;5.28;;
8279;SDS011;8335;42.646;23.380;2022-07-29T04:52:58;7.75;;;5.28;;
8279;SDS011;8335;42.646;23.380;2022-07-29T04:55:25;6.63;;;5.15;;
8279;SDS011;8335;42.646;23.380;2022-07-29T04:57:52;7.45;;;5.30;;
8279;SDS011;8335;42.646;23.380;2022-07-29T05:00:18;6.32;;;5.32;;
8279;SDS011;8335;42.646;23.380;2022-07-29T05:02:46;5.50;;;4.85;;
8279;SDS011;8335;42.646;23.380;2022-07-29T05:05:13;5.85;;;4.93;;
8279;SDS011;8335;42.646;23.380;2022-07-29T05:07:40;5.43;;;4.50;;
8279;SDS011;8335;42.646;23.380;2022-07-29T05:10:07;5.25;;;4.72;;
8279;SDS011;8335;42.646;23.380;2022-07-29T05:12:35;6.07;;;5.10;;
8279;SDS011;8335;42.646;23.380;2022-07-29T05:15:02;6.85;;;4.85;;
8279;SDS011;8335;42.646;23.380;2022-07-29T05:17:29;5.15;;;4.65;;
8279;SDS011;8335;42.646;23.380;2022-07-29T05:19:57;5.57;;;4.47;;
8279;SDS011;8335;42.646;23.380;2022-07-29T05:22:23;6.68;;;4.40;;
8279;SDS011;8335;42.646;23.380;2022-07-29T05:24:50;7.78;;;5.05;;
8279;SDS011;8335;42.646;23.380;2022-07-29T05:27:17;5.35;;;4.80;;
8279;SDS011;8335;42.646;23.380;2022-07-29T05:29:43;6.13;;;5.07;;
8279;SDS011;8335;42.646;23.380;2022-07-29T05:32:10;5.20;;;4.70;;
8279;SDS011;8335;42.646;23.380;2022-07-29T05:34:37;10.80;;;5.55;;
8279;SDS011;8335;42.646;23.380;2022-07-29T05:37:05;5.80;;;5.20;;
8279;SDS011;8335;42.646;23.380;2022-07-29T05:39:32;7.30;;;5.10;;
8279;SDS011;8335;42.646;23.380;2022-07-29T05:41:59;6.53;;;4.88;;
8279;SDS011;8335;42.646;23.380;2022-07-29T05:44:25;6.43;;;5.15;;
8279;SDS011;8335;42.646;23.380;2022-07-29T05:46:52;7.00;;;5.80;;
8279;SDS011;8335;42.646;23.380;2022-07-29T05:49:19;7.00;;;5.32;;
8279;SDS011;8335;42.646;23.380;2022-07-29T05:51:46;8.02;;;5.18;;
8279;SDS011;8335;42.646;23.380;2022-07-29T05:54:15;9.32;;;6.13;;
8279;SDS011;8335;42.646;23.380;2022-07-29T05:56:41;5.95;;;4.82;;
8279;SDS011;8335;42.646;23.380;2022-07-29T05:59:08;7.47;;;4.95;;
8279;SDS011;8335;42.646;23.380;2022-07-29T06:01:35;9.80;;;7.53;;
8279;SDS011;8335;42.646;23.380;2022-07-29T06:04:04;10.48;;;8.52;;
8279;SDS011;8335;42.646;23.380;2022-07-29T06:06:31;7.68;;;5.05;;
8279;SDS011;8335;42.646;23.380;2022-07-29T06:08:58;7.85;;;4.72;;
8279;SDS011;8335;42.646;23.380;2022-07-29T06:11:26;7.70;;;5.03;;
8279;SDS011;8335;42.646;23.380;2022-07-29T06:13:53;6.10;;;5.50;;
8279;SDS011;8335;42.646;23.380;2022-07-29T06:16:20;6.68;;;5.07;;
8279;SDS011;8335;42.646;23.380;2022-07-29T06:18:46;7.72;;;4.93;;
8279;SDS011;8335;42.646;23.380;2022-07-29T06:21:13;9.65;;;5.38;;
8279;SDS011;8335;42.646;23.380;2022-07-29T06:23:40;7.05;;;5.18;;
8279;SDS011;8335;42.646;23.380;2022-07-29T06:26:06;6.20;;;5.60;;
8279;SDS011;8335;42.646;23.380;2022-07-29T06:28:35;11.35;;;5.80;;
8279;SDS011;8335;42.646;23.380;2022-07-29T06:31:02;9.43;;;5.68;;
8279;SDS011;8335;42.646;23.380;2022-07-29T06:33:28;10.63;;;9.02;;
8279;SDS011;8335;42.646;23.380;2022-07-29T06:35:55;6.60;;;5.93;;
8279;SDS011;8335;42.646;23.380;2022-07-29T06:38:22;6.20;;;5.55;;
8279;SDS011;8335;42.646;23.380;2022-07-29T06:40:49;5.10;;;4.60;;
8279;SDS011;8335;42.646;23.380;2022-07-29T06:43:29;8.10;;;4.88;;
8279;SDS011;8335;42.646;23.380;2022-07-29T06:46:00;5.60;;;5.10;;
8279;SDS011;8335;42.646;23.380;2022-07-29T06:48:28;6.20;;;5.60;;
8279;SDS011;8335;42.646;23.380;2022-07-29T06:50:56;10.10;;;7.25;;
8279;SDS011;8335;42.646;23.380;2022-07-29T06:53:22;7.70;;;4.45;;
8279;SDS011;8335;42.646;23.380;2022-07-29T06:55:49;9.20;;;4.97;;
8279;SDS011;8335;42.646;23.380;2022-07-29T06:58:16;7.18;;;4.25;;
8279;SDS011;8335;42.646;23.380;2022-07-29T07:00:45;5.53;;;4.88;;
8279;SDS011;8335;42.646;23.380;2022-07-29T07:03:14;6.25;;;4.80;;
8279;SDS011;8335;42.646;23.380;2022-07-29T07:05:41;5.43;;;4.07;;
8279;SDS011;8335;42.646;23.380;2022-07-29T07:08:08;4.88;;;4.38;;
8279;SDS011;8335;42.646;23.380;2022-07-29T07:10:35;5.70;;;4.13;;
8279;SDS011;8335;42.646;23.380;2022-07-29T07:13:01;5.78;;;3.88;;
8279;SDS011;8335;42.646;23.380;2022-07-29T07:15:28;4.60;;;4.13;;
8279;SDS011;8335;42.646;23.380;2022-07-29T07:17:55;6.97;;;4.20;;
8279;SDS011;8335;42.646;23.380;2022-07-29T07:20:23;4.22;;;3.83;;
8279;SDS011;8335;42.646;23.380;2022-07-29T07:22:51;4.85;;;3.55;;
8279;SDS011;8335;42.646;23.380;2022-07-29T07:25:18;5.35;;;3.92;;
8279;SDS011;8335;42.646;23.380;2022-07-29T07:27:44;4.78;;;3.85;;
8279;SDS011;8335;42.646;23.380;2022-07-29T07:30:12;4.18;;;3.50;;
8279;SDS011;8335;42.646;23.380;2022-07-29T07:32:39;4.22;;;3.83;;
8279;SDS011;8335;42.646;23.380;2022-07-29T07:35:07;4.50;;;4.10;;
8279;SDS011;8335;42.646;23.380;2022-07-29T07:37:36;5.25;;;4.22;;
8279;SDS011;8335;42.646;23.380;2022-07-29T07:40:05;7.28;;;3.70;;
8279;SDS011;8335;42.646;23.380;2022-07-29T07:42:34;5.53;;;3.80;;
8279;SDS011;8335;42.646;23.380;2022-07-29T07:45:01;4.00;;;3.70;;
8279;SDS011;8335;42.646;23.380;2022-07-29T07:47:27;6.30;;;3.67;;
8279;SDS011;8335;42.646;23.380;2022-07-29T07:49:54;4.78;;;3.90;;
8279;SDS011;8335;42.646;23.380;2022-07-29T07:52:21;7.20;;;3.72;;
8279;SDS011;8335;42.646;23.380;2022-07-29T07:54:49;5.72;;;3.67;;
8279;SDS011;8335;42.646;23.380;2022-07-29T07:57:16;8.18;;;3.42;;
8279;SDS011;8335;42.646;23.380;2022-07-29T07:59:43;5.38;;;3.33;;
8279;SDS011;8335;42.646;23.380;2022-07-29T08:02:10;4.90;;;3.42;;
8279;SDS011;8335;42.646;23.380;2022-07-29T08:04:36;4.00;;;3.60;;
8279;SDS011;8335;42.646;23.380;2022-07-29T08:07:05;4.45;;;3.28;;
8279;SDS011;8335;42.646;23.380;2022-07-29T08:09:34;4.45;;;3.20;;
8279;SDS011;8335;42.646;23.380;2022-07-29T08:12:03;6.43;;;3.30;;
8279;SDS011;8335;42.646;23.380;2022-07-29T08:14:31;7.40;;;3.42;;
8279;SDS011;8335;42.646;23.380;2022-07-29T08:16:58;3.55;;;3.25;;
8279;SDS011;8335;42.646;23.380;2022-07-29T08:19:25;3.47;;;3.17;;
8279;SDS011;8335;42.646;23.380;2022-07-29T08:21:52;10.05;;;3.45;;
8279;SDS011;8335;42.646;23.380;2022-07-29T08:24:19;5.15;;;3.10;;
8279;SDS011;8335;42.646;23.380;2022-07-29T08:27:07;4.68;;;3.30;;
8279;SDS011;8335;42.646;23.380;2022-07-29T08:29:34;4.07;;;3.15;;
8279;SDS011;8335;42.646;23.380;2022-07-29T08:32:01;7.05;;;3.15;;
8279;SDS011;8335;42.646;23.380;2022-07-29T08:34:28;4.70;;;3.10;;
8279;SDS011;8335;42.646;23.380;2022-07-29T08:36:55;6.90;;;2.90;;
8279;SDS011;8335;42.646;23.380;2022-07-29T08:39:22;5.93;;;3.00;;
8279;SDS011;8335;42.646;23.380;2022-07-29T08:41:50;4.70;;;2.97;;
8279;SDS011;8335;42.646;23.380;2022-07-29T08:44:19;10.32;;;4.30;;
8279;SDS011;8335;42.646;23.380;2022-07-29T08:46:47;3.97;;;3.65;;
8279;SDS011;8335;42.646;23.380;2022-07-29T08:49:15;4.15;;;3.53;;
8279;SDS011;8335;42.646;23.380;2022-07-29T08:51:42;4.25;;;3.00;;
8279;SDS011;8335;42.646;23.380;2022-07-29T08:54:10;4.07;;;2.80;;
8279;SDS011;8335;42.646;23.380;2022-07-29T08:56:42;3.58;;;2.90;;
8279;SDS011;8335;42.646;23.380;2022-07-29T08:59:09;5.07;;;2.92;;
8279;SDS011;8335;42.646;23.380;2022-07-29T09:01:38;3.40;;;2.90;;
8279;SDS011;8335;42.646;23.380;2022-07-29T09:04:09;3.22;;;2.90;;
8279;SDS011;8335;42.646;23.380;2022-07-29T09:06:39;8.75;;;2.90;;
8279;SDS011;8335;42.646;23.380;2022-07-29T09:09:08;3.60;;;2.80;;
8279;SDS011;8335;42.646;23.380;2022-07-29T09:11:35;4.18;;;3.03;;
8279;SDS011;8335;42.646;23.380;2022-07-29T09:14:02;4.05;;;2.88;;
8279;SDS011;8335;42.646;23.380;2022-07-29T09:19:20;3.40;;;3.10;;
8279;SDS011;8335;42.646;23.380;2022-07-29T09:25:14;4.50;;;3.20;;
8279;SDS011;8335;42.646;23.380;2022-07-29T09:28:04;3.65;;;3.35;;
8279;SDS011;8335;42.646;23.380;2022-07-29T09:30:32;5.68;;;3.28;;
8279;SDS011;8335;42.646;23.380;2022-07-29T09:33:00;7.10;;;3.22;;
8279;SDS011;8335;42.646;23.380;2022-07-29T09:35:28;7.30;;;3.65;;
8279;SDS011;8335;42.646;23.380;2022-07-29T09:37:56;4.43;;;3.75;;
8279;SDS011;8335;42.646;23.380;2022-07-29T09:40:23;4.60;;;3.65;;
8279;SDS011;8335;42.646;23.380;2022-07-29T09:42:52;7.13;;;3.50;;
8279;SDS011;8335;42.646;23.380;2022-07-29T09:45:31;12.15;;;6.38;;
8279;SDS011;8335;42.646;23.380;2022-07-29T09:48:00;4.72;;;3.60;;
8279;SDS011;8335;42.646;23.380;2022-07-29T09:50:40;5.15;;;3.50;;
8279;SDS011;8335;42.646;23.380;2022-07-29T09:53:08;4.90;;;4.10;;
8279;SDS011;8335;42.646;23.380;2022-07-29T09:55:45;6.07;;;3.63;;
8279;SDS011;8335;42.646;23.380;2022-07-29T09:58:15;3.90;;;3.45;;
8279;SDS011;8335;42.646;23.380;2022-07-29T10:00:42;5.38;;;3.70;;
8279;SDS011;8335;42.646;23.380;2022-07-29T10:03:11;5.30;;;3.65;;
8279;SDS011;8335;42.646;23.380;2022-07-29T10:05:38;5.00;;;3.25;;
8279;SDS011;8335;42.646;23.380;2022-07-29T10:08:07;3.95;;;3.22;;
8279;SDS011;8335;42.646;23.380;2022-07-29T10:10:35;3.78;;;3.03;;
8279;SDS011;8335;42.646;23.380;2022-07-29T10:13:04;4.40;;;4.00;;
8279;SDS011;8335;42.646;23.380;2022-07-29T10:15:33;5.60;;;4.13;;
8279;SDS011;8335;42.646;23.380;2022-07-29T10:18:02;4.72;;;4.30;;
8279;SDS011;8335;42.646;23.380;2022-07-29T10:20:30;5.03;;;4.03;;
8279;SDS011;8335;42.646;23.380;2022-07-29T10:22:58;4.93;;;4.20;;
8279;SDS011;8335;42.646;23.380;2022-07-29T10:25:25;12.13;;;6.35;;
8279;SDS011;8335;42.646;23.380;2022-07-29T10:27:52;5.97;;;3.95;;
8279;SDS011;8335;42.646;23.380;2022-07-29T10:30:22;4.47;;;4.07;;
8279;SDS011;8335;42.646;23.380;2022-07-29T10:36:02;5.53;;;3.63;;
8279;SDS011;8335;42.646;23.380;2022-07-29T10:38:45;4.47;;;3.08;;
8279;SDS011;8335;42.646;23.380;2022-07-29T10:41:33;3.17;;;2.78;;
8279;SDS011;8335;42.646;23.380;2022-07-29T10:44:13;6.93;;;3.42;;
8279;SDS011;8335;42.646;23.380;2022-07-29T10:46:42;5.68;;;3.25;;
8279;SDS011;8335;42.646;23.380;2022-07-29T10:49:11;3.25;;;2.90;;
8279;SDS011;8335;42.646;23.380;2022-07-29T10:51:53;3.40;;;3.10;;
8279;SDS011;8335;42.646;23.380;2022-07-29T10:57:28;6.05;;;3.10;;
8279;SDS011;8335;42.646;23.380;2022-07-29T11:02:52;4.38;;;2.85;;
8279;SDS011;8335;42.646;23.380;2022-07-29T11:05:21;6.25;;;3.65;;
8279;SDS011;8335;42.646;23.380;2022-07-29T11:10:52;4.35;;;3.22;;
8279;SDS011;8335;42.646;23.380;2022-07-29T11:13:47;5.07;;;4.15;;
8279;SDS011;8335;42.646;23.380;2022-07-29T11:16:16;3.85;;;3.55;;
8279;SDS011;8335;42.646;23.380;2022-07-29T11:21:48;6.50;;;3.50;;
8279;SDS011;8335;42.646;23.380;2022-07-29T11:24:19;4.32;;;3.25;;
8279;SDS011;8335;42.646;23.380;2022-07-29T11:29:48;4.50;;;3.58;;
8279;SDS011;8335;42.646;23.380;2022-07-29T11:32:17;4.68;;;3.65;;
8279;SDS011;8335;42.646;23.380;2022-07-29T11:34:45;5.88;;;3.58;;
8279;SDS011;8335;42.646;23.380;2022-07-29T11:37:21;5.50;;;3.90;;
8279;SDS011;8335;42.646;23.380;2022-07-29T11:40:14;4.63;;;3.60;;
8279;SDS011;8335;42.646;23.380;2022-07-29T11:42:48;4.20;;;3.78;;
8279;SDS011;8335;42.646;23.380;2022-07-29T11:45:16;4.38;;;3.97;;
8279;SDS011;8335;42.646;23.380;2022-07-29T11:47:49;4.25;;;3.78;;
8279;SDS011;8335;42.646;23.380;2022-07-29T11:50:26;6.88;;;3.72;;
8279;SDS011;8335;42.646;23.380;2022-07-29T11:52:54;4.68;;;3.70;;
8279;SDS011;8335;42.646;23.380;2022-07-29T11:55:22;4.20;;;3.85;;
8279;SDS011;8335;42.646;23.380;2022-07-29T11:57:51;4.97;;;4.47;;
8279;SDS011;8335;42.646;23.380;2022-07-29T12:00:23;6.45;;;4.35;;
8279;SDS011;8335;42.646;23.380;2022-07-29T12:02:52;6.22;;;4.05;;
8279;SDS011;8335;42.646;23.380;2022-07-29T12:05:19;4.40;;;4.00;;
8279;SDS011;8335;42.646;23.380;2022-07-29T12:07:47;5.60;;;4.45;;
8279;SDS011;8335;42.646;23.380;2022-07-29T12:10:14;5.00;;;4.50;;
8279;SDS011;8335;42.646;23.380;2022-07-29T12:12:43;5.13;;;4.55;;
8279;SDS011;8335;42.646;23.380;2022-07-29T12:18:35;5.28;;;4.85;;
8279;SDS011;8335;42.646;23.380;2022-07-29T12:21:02;4.90;;;4.50;;
8279;SDS011;8335;42.646;23.380;2022-07-29T12:23:29;6.30;;;5.32;;
8279;SDS011;8335;42.646;23.380;2022-07-29T12:25:57;5.88;;;5.28;;
8279;SDS011;8335;42.646;23.380;2022-07-29T12:28:26;6.55;;;5.38;;
8279;SDS011;8335;42.646;23.380;2022-07-29T12:30:52;5.57;;;5.00;;
8279;SDS011;8335;42.646;23.380;2022-07-29T12:33:20;6.63;;;4.97;;
8279;SDS011;8335;42.646;23.380;2022-07-29T12:35:49;5.30;;;4.80;;
8279;SDS011;8335;42.646;23.380;2022-07-29T12:38:18;5.55;;;4.90;;
8279;SDS011;8335;42.646;23.380;2022-07-29T12:40:45;9.48;;;5.10;;
8279;SDS011;8335;42.646;23.380;2022-07-29T12:43:14;6.05;;;4.88;;
8279;SDS011;8335;42.646;23.380;2022-07-29T12:45:43;5.68;;;4.63;;
8279;SDS011;8335;42.646;23.380;2022-07-29T12:48:12;5.57;;;4.57;;
8279;SDS011;8335;42.646;23.380;2022-07-29T12:50:52;5.60;;;5.03;;
8279;SDS011;8335;42.646;23.380;2022-07-29T12:53:23;5.85;;;5.10;;
8279;SDS011;8335;42.646;23.380;2022-07-29T12:55:50;5.07;;;4.68;;
8279;SDS011;8335;42.646;23.380;2022-07-29T12:58:31;5.22;;;4.65;;
8279;SDS011;8335;42.646;23.380;2022-07-29T13:01:05;5.78;;;4.75;;
8279;SDS011;8335;42.646;23.380;2022-07-29T13:03:47;6.60;;;4.85;;
8279;SDS011;8335;42.646;23.380;2022-07-29T13:06:32;5.70;;;5.20;;
8279;SDS011;8335;42.646;23.380;2022-07-29T13:09:06;8.13;;;5.00;;
8279;SDS011;8335;42.646;23.380;2022-07-29T13:11:38;5.63;;;4.90;;
8279;SDS011;8335;42.646;23.380;2022-07-29T13:14:07;4.97;;;4.47;;
8279;SDS011;8335;42.646;23.380;2022-07-29T13:16:36;5.22;;;4.72;;
8279;SDS011;8335;42.646;23.380;2022-07-29T13:19:17;7.10;;;5.28;;
8279;SDS011;8335;42.646;23.380;2022-07-29T13:21:44;5.43;;;4.90;;
8279;SDS011;8335;42.646;23.380;2022-07-29T13:24:11;5.18;;;4.68;;
8279;SDS011;8335;42.646;23.380;2022-07-29T13:26:39;6.32;;;4.80;;
8279;SDS011;8335;42.646;23.380;2022-07-29T13:29:06;6.18;;;4.95;;
8279;SDS011;8335;42.646;23.380;2022-07-29T13:31:33;6.20;;;4.95;;
8279;SDS011;8335;42.646;23.380;2022-07-29T13:34:01;5.45;;;4.72;;
8279;SDS011;8335;42.646;23.380;2022-07-29T13:36:28;4.70;;;4.22;;
8279;SDS011;8335;42.646;23.380;2022-07-29T13:38:54;5.75;;;4.75;;
8279;SDS011;8335;42.646;23.380;2022-07-29T13:41:21;6.60;;;4.93;;
8279;SDS011;8335;42.646;23.380;2022-07-29T13:43:48;5.50;;;5.00;;
8279;SDS011;8335;42.646;23.380;2022-07-29T13:46:15;6.50;;;5.28;;
8279;SDS011;8335;42.646;23.380;2022-07-29T13:48:44;7.60;;;5.20;;
8279;SDS011;8335;42.646;23.380;2022-07-29T13:51:13;8.55;;;5.00;;
8279;SDS011;8335;42.646;23.380;2022-07-29T13:53:39;7.15;;;5.10;;
8279;SDS011;8335;42.646;23.380;2022-07-29T13:56:06;6.38;;;4.97;;
8279;SDS011;8335;42.646;23.380;2022-07-29T13:58:33;7.50;;;5.10;;
8279;SDS011;8335;42.646;23.380;2022-07-29T14:01:00;5.70;;;4.60;;
8279;SDS011;8335;42.646;23.380;2022-07-29T14:03:26;5.05;;;4.57;;
8279;SDS011;8335;42.646;23.380;2022-07-29T14:05:54;4.97;;;4.43;;
8279;SDS011;8335;42.646;23.380;2022-07-29T14:08:22;4.97;;;4.53;;
8279;SDS011;8335;42.646;23.380;2022-07-29T14:10:49;5.35;;;4.55;;
8279;SDS011;8335;42.646;23.380;2022-07-29T14:13:16;8.48;;;4.35;;
8279;SDS011;8335;42.646;23.380;2022-07-29T14:15:43;5.70;;;4.00;;
8279;SDS011;8335;42.646;23.380;2022-07-29T14:18:09;5.38;;;4.50;;
8279;SDS011;8335;42.646;23.380;2022-07-29T14:20:36;5.40;;;4.90;;
8279;SDS011;8335;42.646;23.380;2022-07-29T14:23:03;5.97;;;4.30;;
8279;SDS011;8335;42.646;23.380;2022-07-29T14:25:31;7.35;;;4.75;;
8279;SDS011;8335;42.646;23.380;2022-07-29T14:27:58;4.72;;;4.32;;
8279;SDS011;8335;42.646;23.380;2022-07-29T14:30:24;4.95;;;4.55;;
8279;SDS011;8335;42.646;23.380;2022-07-29T14:32:51;4.82;;;4.32;;
8279;SDS011;8335;42.646;23.380;2022-07-29T14:35:18;5.78;;;4.93;;
8279;SDS011;8335;42.646;23.380;2022-07-29T14:37:44;8.15;;;4.80;;
8279;SDS011;8335;42.646;23.380;2022-07-29T14:40:11;5.03;;;4.60;;
8279;SDS011;8335;42.646;23.380;2022-07-29T14:49:28;5.90;;;4.85;;
8279;SDS011;8335;42.646;23.380;2022-07-29T14:51:55;5.85;;;5.25;;
8279;SDS011;8335;42.646;23.380;2022-07-29T14:54:22;5.15;;;4.65;;
8279;SDS011;8335;42.646;23.380;2022-07-29T14:56:48;5.32;;;4.68;;
8279;SDS011;8335;42.646;23.380;2022-07-29T14:59:16;5.38;;;4.80;;
8279;SDS011;8335;42.646;23.380;2022-07-29T15:01:43;6.00;;;5.07;;
8279;SDS011;8335;42.646;23.380;2022-07-29T15:04:09;6.13;;;5.47;;
8279;SDS011;8335;42.646;23.380;2022-07-29T15:06:38;5.82;;;5.10;;
8279;SDS011;8335;42.646;23.380;2022-07-29T15:09:04;5.60;;;4.63;;
8279;SDS011;8335;42.646;23.380;2022-07-29T15:11:31;6.38;;;4.80;;
8279;SDS011;8335;42.646;23.380;2022-07-29T15:13:58;6.30;;;4.63;;
8279;SDS011;8335;42.646;23.380;2022-07-29T15:16:24;6.63;;;4.90;;
8279;SDS011;8335;42.646;23.380;2022-07-29T15:18:51;5.07;;;4.57;;
8279;SDS011;8335;42.646;23.380;2022-07-29T15:21:18;4.88;;;4.40;;
8279;SDS011;8335;42.646;23.380;2022-07-29T15:23:46;5.03;;;4.60;;
8279;SDS011;8335;42.646;23.380;2022-07-29T15:26:13;6.68;;;4.50;;
8279;SDS011;8335;42.646;23.380;2022-07-29T15:28:39;5.95;;;4.80;;
8279;SDS011;8335;42.646;23.380;2022-07-29T15:31:06;5.97;;;4.45;;
8279;SDS011;8335;42.646;23.380;2022-07-29T15:33:34;4.60;;;4.20;;
8279;SDS011;8335;42.646;23.380;2022-07-29T15:36:00;5.28;;;4.03;;
8279;SDS011;8335;42.646;23.380;2022-07-29T15:38:29;5.22;;;4.10;;
8279;SDS011;8335;42.646;23.380;2022-07-29T15:40:57;4.90;;;4.40;;
8279;SDS011;8335;42.646;23.380;2022-07-29T15:43:24;5.65;;;4.45;;